Chelsea Heart and Sole
Skip Navigation Links
09 May 2015
Page 1 of 2 (74 items)
[1]2
Pos
Race No
Fav
Share
Print
Name
Time
Net Time
Category
Cat Pos
Gender
Gen Pos
Pace
1709Terry Draper00:38:18.500:38:17.4Overall1Male121.6 m/hr
2760Doug Mckibbon00:38:19.800:38:17.440-491Male221.6 m/hr
3729Sam Smith00:38:20.400:38:14.530-391Male321.7 m/hr
4723Jason Perkins00:38:32.600:38:29.540-492Male421.5 m/hr
5719Chris Mannor00:39:56.300:39:54.740-493Male520.7 m/hr
6738Scott Weiss00:39:58.400:39:53.830-392Male620.8 m/hr
7766Mike Adams00:42:27.400:42:23.740-494Male719.5 m/hr
8762Mike Coffman00:42:29.600:42:28.240-495Male819.5 m/hr
9767Patrich Hoag00:43:10.100:43:08.330-393Male919.2 m/hr
10707Don Campbell00:43:14.100:43:09.460-691Male1019.2 m/hr
11765Matthew Baltall00:44:49.600:44:48.730-394Male1118.5 m/hr
12294Patrick Oates00:47:11.600:47:08.840-496Male1217.6 m/hr
13298Justin Roemer00:51:31.600:51:14.020-291Male1316.2 m/hr
14753Jay Soriano00:52:05.900:51:38.840-497Male1416.0 m/hr
15749Benjamin Nabozny00:52:36.100:52:23.730-395Male1515.8 m/hr
16705Davita Burkhead-Weiner00:52:43.400:52:36.5Overall1Female115.7 m/hr
17761Guillame Couement00:53:15.100:53:06.540-498Male1615.6 m/hr
18752Julie Soriano00:54:32.600:54:06.040-491Female215.3 m/hr
19737Paul Ulisse00:54:40.500:54:24.120-292Male1715.2 m/hr
20756Allen Cole00:55:34.600:55:10.340-499Male1815.0 m/hr
21717Patrick Johnson00:55:36.500:55:21.440-4910Male1915.0 m/hr
22706Pierce Butler00:56:47.900:56:13.420-293Male2014.7 m/hr
23731Benjamin Thoms00:57:35.400:57:17.214-191Male2114.5 m/hr
24747Greg Hodder00:57:47.100:57:31.550-591Male2214.4 m/hr
25702Anthony Barnabo00:57:52.800:57:31.230-396Male2314.4 m/hr
26746Paul Charles00:58:11.100:57:34.350-592Male2414.4 m/hr
27297Teresa Kissling-Aksenon00:58:21.500:58:04.940-492Female314.3 m/hr
28745Mark Tuneff00:58:30.400:57:55.050-593Male2514.3 m/hr
29741Deborah Beagle00:59:11.900:58:58.540-493Female414.0 m/hr
30703Jim Beagle00:59:12.100:58:58.740-4911Male2614.0 m/hr
31732Steven Thoms00:59:18.600:58:59.750-594Male2714.0 m/hr
32754Patricia Winebrenner01:00:19.900:59:43.540-494Female513.9 m/hr
33725Janice Rey01:01:04.901:00:55.150-591Female613.6 m/hr
34300Gary Wickel01:01:33.501:01:13.360-692Male2813.5 m/hr
35751Jeffery Shoemaker01:01:35.501:00:56.030-397Male2913.6 m/hr
36722Josh Norman01:02:17.701:01:44.030-398Male3013.4 m/hr
37769Kellie Mckibbon01:03:27.301:03:18.440-495Female713.1 m/hr
38770Shannon Mcelroy01:03:47.601:03:24.720-291Female813.1 m/hr
39744Ana Hotaling01:04:00.201:03:55.540-496Female913.0 m/hr
40718Rob Mahan01:04:05.101:03:53.550-595Male3113.0 m/hr
41768Christi Becker01:04:24.401:04:15.650-592Female1012.9 m/hr
42759Harry Brodbeck01:05:23.801:04:53.750-596Male3212.8 m/hr
43292Zachary Dickman01:05:42.901:05:08.8Age Unknown1Male3312.7 m/hr
44750Benjamin A Nabozny01:05:48.201:05:33.450-597Male3412.6 m/hr
45720Kevin Nauts01:05:55.501:03:58.620-294Male3512.9 m/hr
46711Sarah Early01:07:59.201:07:33.920-292Female1112.3 m/hr
47748Mackenzie Konschuh01:09:37.401:09:15.114-192Female1212.0 m/hr
48758Molly Olk01:09:37.401:09:14.914-191Female1312.0 m/hr
49712Sharon Early01:12:22.201:11:51.450-593Female1411.5 m/hr
50710Bryan Early01:12:22.401:11:49.450-598Male3611.5 m/hr
Page 1 of 2 (74 items)
[1]2